createdAt,value
2017-12-01T00:00:31.838Z,99435
2017-12-01T00:03:00.173Z,99440
2017-12-01T00:05:29.184Z,99443
2017-12-01T00:07:57.429Z,99453
2017-12-01T00:10:26.529Z,99452
2017-12-01T00:12:55.537Z,99460
2017-12-01T00:15:23.788Z,99460
2017-12-01T00:17:53.106Z,99470
2017-12-01T00:20:21.348Z,99468
2017-12-01T00:22:49.573Z,99464
2017-12-01T00:25:18.053Z,99465
2017-12-01T00:27:46.273Z,99468
2017-12-01T00:30:14.538Z,99470
2017-12-01T00:32:42.998Z,99469
2017-12-01T00:35:11.248Z,99473
2017-12-01T00:37:39.486Z,99479
2017-12-01T00:40:08.587Z,99484
2017-12-01T00:42:37.594Z,99481
2017-12-01T00:45:06.760Z,99489
2017-12-01T00:47:34.985Z,99486
2017-12-01T00:50:03.234Z,99484
2017-12-01T00:52:31.569Z,99488
2017-12-01T00:54:59.818Z,99494
2017-12-01T00:57:28.585Z,99486
2017-12-01T00:59:57.008Z,99497
2017-12-01T01:02:25.221Z,99499
2017-12-01T01:04:53.514Z,99499
2017-12-01T01:07:21.836Z,99501
2017-12-01T01:09:50.091Z,99503
2017-12-01T01:12:18.353Z,99503
2017-12-01T01:14:46.652Z,99510
2017-12-01T01:17:15.073Z,99515
2017-12-01T01:19:43.306Z,99520
2017-12-01T01:22:11.587Z,99523
2017-12-01T01:24:39.921Z,99520
2017-12-01T01:27:08.957Z,99526
2017-12-01T01:29:37.238Z,99534
2017-12-01T01:32:05.551Z,99537
2017-12-01T01:34:34.560Z,99541
2017-12-01T01:37:03.659Z,99543
2017-12-01T01:39:32.654Z,99544
2017-12-01T01:42:00.869Z,99549
2017-12-01T01:44:29.174Z,99548
2017-12-01T01:46:57.399Z,99552
2017-12-01T01:49:25.638Z,99556
2017-12-01T01:51:55.485Z,99563
2017-12-01T01:54:23.764Z,99562
2017-12-01T01:56:52.019Z,99560
2017-12-01T01:59:20.406Z,99566
2017-12-01T02:01:48.638Z,99565
2017-12-01T02:04:16.862Z,99572
2017-12-01T02:06:45.179Z,99569
2017-12-01T02:09:13.427Z,99573
2017-12-01T02:11:41.657Z,99578
2017-12-01T02:14:10.819Z,99584
2017-12-01T02:16:39.056Z,99586
2017-12-01T02:19:07.281Z,99587
2017-12-01T02:21:35.597Z,99591
2017-12-01T02:24:03.874Z,99592
2017-12-01T02:26:32.088Z,99599
2017-12-01T02:29:00.684Z,99591
2017-12-01T02:31:28.921Z,99598
2017-12-01T02:33:57.195Z,99594
2017-12-01T02:36:25.534Z,99591
2017-12-01T02:38:54.523Z,99587
2017-12-01T02:41:22.791Z,99592
2017-12-01T02:43:51.092Z,99595
2017-12-01T02:46:20.098Z,99594
2017-12-01T02:48:48.386Z,99596
2017-12-01T02:51:16.724Z,99615
2017-12-01T02:53:44.957Z,99617
2017-12-01T02:56:13.216Z,99614
2017-12-01T02:58:41.616Z,99615
2017-12-01T03:01:09.925Z,99613
2017-12-01T03:03:38.150Z,99615
2017-12-01T03:06:06.465Z,99615
2017-12-01T03:08:34.734Z,99620
2017-12-01T03:11:02.973Z,99622
2017-12-01T03:13:31.247Z,99627
2017-12-01T03:15:59.508Z,99635
2017-12-01T03:18:27.748Z,99629
2017-12-01T03:20:56.078Z,99627
2017-12-01T03:23:24.338Z,99632
2017-12-01T03:25:52.592Z,99637
2017-12-01T03:28:22.119Z,99637
2017-12-01T03:30:50.361Z,99641
2017-12-01T03:33:18.601Z,99643
2017-12-01T03:35:46.933Z,99648
2017-12-01T03:38:15.163Z,99647
2017-12-01T03:40:43.426Z,99651
2017-12-01T03:43:11.923Z,99657
2017-12-01T03:45:40.956Z,99662
2017-12-01T03:48:09.254Z,99659
2017-12-01T03:50:37.525Z,99665
2017-12-01T03:53:05.754Z,99672
2017-12-01T03:55:34.036Z,99675
2017-12-01T03:58:02.272Z,99669
2017-12-01T04:00:30.545Z,99679
2017-12-01T04:02:58.911Z,99676
2017-12-01T04:05:27.161Z,99682
2017-12-01T04:07:55.474Z,99700
2017-12-01T04:10:23.799Z,99703
2017-12-01T04:12:52.094Z,99699
2017-12-01T04:15:20.348Z,99711
2017-12-01T04:17:48.731Z,99711
2017-12-01T04:20:16.997Z,99714
2017-12-01T04:22:45.258Z,99712
2017-12-01T04:25:13.698Z,99711
2017-12-01T04:27:41.968Z,99714
2017-12-01T04:30:10.207Z,99722
2017-12-01T04:32:38.660Z,99718
2017-12-01T04:35:06.912Z,99734
2017-12-01T04:37:35.522Z,99729
2017-12-01T04:40:03.860Z,99731
2017-12-01T04:42:32.305Z,99718
2017-12-01T04:45:00.561Z,99725
2017-12-01T04:47:28.869Z,99731
2017-12-01T04:49:57.145Z,99731
2017-12-01T04:52:25.511Z,99745
2017-12-01T04:54:54.533Z,99752
2017-12-01T04:57:23.765Z,99750
2017-12-01T04:59:52.025Z,99748
2017-12-01T05:02:20.280Z,99754
2017-12-01T05:04:48.573Z,99752
2017-12-01T05:07:16.851Z,99760
2017-12-01T05:09:45.086Z,99753
2017-12-01T05:12:13.412Z,99758
2017-12-01T05:14:41.635Z,99754
2017-12-01T05:17:09.977Z,99758
2017-12-01T05:19:38.960Z,99769
2017-12-01T05:22:07.201Z,99773
2017-12-01T05:24:36.098Z,99773
2017-12-01T05:27:04.394Z,99783
2017-12-01T05:29:32.656Z,99788
2017-12-01T05:32:01.904Z,99788
2017-12-01T05:34:30.129Z,99790
2017-12-01T05:36:58.360Z,99798
2017-12-01T05:39:26.659Z,99793
2017-12-01T05:41:55.647Z,99805
2017-12-01T05:44:23.903Z,99807
2017-12-01T05:46:52.209Z,99808
2017-12-01T05:49:20.456Z,99808
2017-12-01T05:51:48.714Z,99807
2017-12-01T05:54:17.067Z,99823
2017-12-01T05:56:45.315Z,99823
2017-12-01T05:59:13.595Z,99812
2017-12-01T06:01:41.908Z,99826
2017-12-01T06:04:10.158Z,99827
2017-12-01T06:06:38.460Z,99828
2017-12-01T06:09:06.768Z,99837
2017-12-01T06:11:35.782Z,99847
2017-12-01T06:14:05.801Z,99843
2017-12-01T06:16:34.061Z,99844
2017-12-01T06:19:03.056Z,99844
2017-12-01T06:21:32.402Z,99865
2017-12-01T06:24:00.669Z,99856
2017-12-01T06:26:28.915Z,99862
2017-12-01T06:28:57.331Z,99866
2017-12-01T06:31:25.595Z,99867
2017-12-01T06:33:53.849Z,99869
2017-12-01T06:36:22.177Z,99883
2017-12-01T06:38:50.453Z,99877
2017-12-01T06:41:18.692Z,99882
2017-12-01T06:43:47.117Z,99893
2017-12-01T06:46:15.365Z,99901
2017-12-01T06:48:43.601Z,99914
2017-12-01T06:51:12.669Z,99910
2017-12-01T06:53:40.936Z,99915
2017-12-01T06:56:09.206Z,99921
2017-12-01T06:58:37.527Z,99937
2017-12-01T07:01:06.545Z,99933
2017-12-01T07:03:34.778Z,99925
2017-12-01T07:06:03.872Z,99933
2017-12-01T07:08:32.133Z,99935
2017-12-01T07:11:00.381Z,99936
2017-12-01T07:13:28.713Z,99930
2017-12-01T07:15:57.714Z,99941
2017-12-01T07:18:26.726Z,99937
2017-12-01T07:20:55.037Z,99940
2017-12-01T07:23:23.273Z,99959
2017-12-01T07:25:51.555Z,99954
2017-12-01T07:28:19.989Z,99955
2017-12-01T07:30:48.281Z,99950
2017-12-01T07:33:16.555Z,99956
2017-12-01T07:35:46.315Z,99952
2017-12-01T07:38:15.319Z,99958
2017-12-01T07:40:43.570Z,99959
2017-12-01T07:43:11.846Z,99962
2017-12-01T07:45:40.841Z,99970
2017-12-01T07:48:09.182Z,99985
2017-12-01T07:50:38.186Z,99993
2017-12-01T07:53:06.460Z,99990
2017-12-01T07:55:34.782Z,99995
2017-12-01T07:58:03.029Z,99989
2017-12-01T08:00:31.281Z,100000
2017-12-01T08:02:59.584Z,99999
2017-12-01T08:05:28.267Z,100008
2017-12-01T08:07:56.799Z,100013
2017-12-01T08:10:25.045Z,100014
2017-12-01T08:12:55.345Z,100007
2017-12-01T08:15:23.586Z,100023
2017-12-01T08:17:52.611Z,100027
2017-12-01T08:20:20.900Z,100028
2017-12-01T08:22:52.914Z,100039
2017-12-01T08:25:31.975Z,100029
2017-12-01T08:28:00.216Z,100031
2017-12-01T08:30:29.485Z,100035
2017-12-01T08:32:57.813Z,100033
2017-12-01T08:35:26.842Z,100040
2017-12-01T08:37:55.085Z,100039
2017-12-01T08:40:23.385Z,100047
2017-12-01T08:42:51.631Z,100039
2017-12-01T08:45:20.634Z,100046
2017-12-01T08:47:48.931Z,100054
2017-12-01T08:50:17.179Z,100059
2017-12-01T08:52:46.181Z,100053
2017-12-01T08:55:14.461Z,100057
2017-12-01T08:57:42.717Z,100062
2017-12-01T09:00:11.032Z,100077
2017-12-01T09:02:39.339Z,100066
2017-12-01T09:05:07.602Z,100083
2017-12-01T09:07:35.844Z,100081
2017-12-01T09:10:04.989Z,100076
2017-12-01T09:12:33.241Z,100073
2017-12-01T09:15:01.491Z,100079
2017-12-01T09:17:29.822Z,100086
2017-12-01T09:19:58.093Z,100095
2017-12-01T09:22:26.382Z,100100
2017-12-01T09:24:55.454Z,100098
2017-12-01T09:27:23.721Z,100110
2017-12-01T09:29:52.019Z,100111
2017-12-01T09:32:20.313Z,100115
2017-12-01T09:34:49.351Z,100112
2017-12-01T09:37:17.610Z,100127
2017-12-01T09:39:45.901Z,100123
2017-12-01T09:42:14.250Z,100128
2017-12-01T09:44:42.518Z,100126
2017-12-01T09:47:10.802Z,100128
2017-12-01T09:49:39.091Z,100129
2017-12-01T09:52:07.342Z,100126
2017-12-01T09:54:36.393Z,100138
2017-12-01T09:57:04.689Z,100129
2017-12-01T09:59:32.987Z,100141
2017-12-01T10:02:02.038Z,100149
2017-12-01T10:04:30.668Z,100146
2017-12-01T10:06:58.936Z,100150
2017-12-01T10:09:27.244Z,100146
2017-12-01T10:11:55.511Z,100146
2017-12-01T10:14:23.767Z,100148
2017-12-01T10:16:52.883Z,100138
2017-12-01T10:19:21.128Z,100145
2017-12-01T10:21:50.363Z,100147
2017-12-01T10:24:18.660Z,100151
2017-12-01T10:26:46.933Z,100147
2017-12-01T10:29:16.114Z,100152
2017-12-01T10:31:44.616Z,100152
2017-12-01T10:34:12.872Z,100157
2017-12-01T10:36:41.117Z,100161
2017-12-01T10:39:10.184Z,100151
2017-12-01T10:41:38.441Z,100158
2017-12-01T10:44:06.718Z,100160
2017-12-01T10:46:35.073Z,100163
2017-12-01T10:49:03.994Z,100166
2017-12-01T10:51:32.247Z,100166
2017-12-01T10:54:00.545Z,100168
2017-12-01T10:56:29.143Z,100167
2017-12-01T10:58:57.396Z,100172
2017-12-01T11:01:25.722Z,100171
2017-12-01T11:03:53.973Z,100171
2017-12-01T11:06:22.241Z,100176
2017-12-01T11:08:50.573Z,100173
2017-12-01T11:11:18.811Z,100168
2017-12-01T11:13:47.098Z,100173
2017-12-01T11:16:16.169Z,100183
2017-12-01T11:18:44.416Z,100183
2017-12-01T11:21:12.697Z,100189
2017-12-01T11:23:40.972Z,100202
2017-12-01T11:26:09.250Z,100197
2017-12-01T11:28:37.493Z,100194
2017-12-01T11:31:05.780Z,100201
2017-12-01T11:33:34.046Z,100196
2017-12-01T11:36:02.296Z,100205
2017-12-01T11:38:31.347Z,100206
2017-12-01T11:40:59.598Z,100204
2017-12-01T11:43:27.840Z,100198
2017-12-01T11:45:56.116Z,100203
2017-12-01T11:48:25.121Z,100193
2017-12-01T11:50:53.347Z,100187
2017-12-01T11:53:21.622Z,100199
2017-12-01T11:55:49.888Z,100194
2017-12-01T11:58:18.138Z,100193
2017-12-01T12:00:48.234Z,100194
2017-12-01T12:03:16.505Z,100201
2017-12-01T12:05:44.833Z,100205
2017-12-01T12:08:13.117Z,100212
2017-12-01T12:10:41.361Z,100204
2017-12-01T12:13:09.614Z,100206
2017-12-01T12:15:39.524Z,100218
2017-12-01T12:18:08.522Z,100217
2017-12-01T12:20:37.540Z,100224
2017-12-01T12:23:05.852Z,100229
2017-12-01T12:25:34.366Z,100227
2017-12-01T12:28:02.667Z,100221
2017-12-01T12:30:30.974Z,100214
2017-12-01T12:32:59.217Z,100220
2017-12-01T12:35:28.385Z,100232
2017-12-01T12:37:57.489Z,100231
2017-12-01T12:40:25.742Z,100235
2017-12-01T12:42:53.994Z,100235
2017-12-01T12:45:22.291Z,100235
2017-12-01T12:47:50.532Z,100226
2017-12-01T12:50:18.843Z,100232
2017-12-01T12:52:47.180Z,100234
2017-12-01T12:55:15.437Z,100243
2017-12-01T12:57:43.678Z,100239
2017-12-01T13:00:12.137Z,100242
2017-12-01T13:02:40.408Z,100239
2017-12-01T13:05:09.493Z,100243
2017-12-01T13:07:37.782Z,100243
2017-12-01T13:10:06.076Z,100249
2017-12-01T13:12:34.321Z,100249
2017-12-01T13:15:02.618Z,100259
2017-12-01T13:17:30.884Z,100258
2017-12-01T13:19:59.129Z,100264
2017-12-01T13:22:27.486Z,100266
2017-12-01T13:24:55.722Z,100268
2017-12-01T13:27:23.968Z,100278
2017-12-01T13:29:53.036Z,100273
2017-12-01T13:32:21.535Z,100286
2017-12-01T13:34:49.860Z,100279
2017-12-01T13:37:18.896Z,100282
2017-12-01T13:39:47.143Z,100283
2017-12-01T13:42:16.176Z,100284
2017-12-01T13:44:44.440Z,100288
2017-12-01T13:47:12.664Z,100291
2017-12-01T13:49:40.919Z,100302
2017-12-01T13:52:09.275Z,100307
2017-12-01T13:54:37.518Z,100310
2017-12-01T13:57:05.790Z,100313
2017-12-01T13:59:34.847Z,100320
2017-12-01T14:02:03.082Z,100322
2017-12-01T14:04:31.341Z,100307
2017-12-01T14:06:59.630Z,100331
2017-12-01T14:09:27.862Z,100339
2017-12-01T14:11:56.110Z,100339
2017-12-01T14:14:24.405Z,100349
2017-12-01T14:16:52.638Z,100343
2017-12-01T14:19:20.913Z,100345
2017-12-01T14:21:49.212Z,100347
2017-12-01T14:24:17.488Z,100357
2017-12-01T14:26:45.750Z,100359
2017-12-01T14:29:14.056Z,100356
2017-12-01T14:31:42.324Z,100372
2017-12-01T14:34:10.571Z,100368
2017-12-01T14:36:38.923Z,100361
2017-12-01T14:39:07.926Z,100370
2017-12-01T14:41:36.170Z,100379
2017-12-01T14:44:05.287Z,100375
2017-12-01T14:46:33.557Z,100381
2017-12-01T14:49:02.609Z,100397
2017-12-01T14:51:30.891Z,100398
2017-12-01T14:53:59.126Z,100403
2017-12-01T14:56:27.379Z,100402
2017-12-01T14:58:56.430Z,100394
2017-12-01T15:01:24.712Z,100395
2017-12-01T15:03:52.977Z,100396
2017-12-01T15:06:21.311Z,100396
2017-12-01T15:08:49.556Z,100400
2017-12-01T15:11:18.588Z,100387
2017-12-01T15:13:46.966Z,100391
2017-12-01T15:16:15.290Z,100389
2017-12-01T15:18:44.409Z,100386
2017-12-01T15:21:12.863Z,100393
2017-12-01T15:23:41.153Z,100383
2017-12-01T15:26:09.536Z,100404
2017-12-01T15:28:37.886Z,100405
2017-12-01T15:31:06.141Z,100409
2017-12-01T15:33:34.424Z,100412
2017-12-01T15:36:02.697Z,100425
2017-12-01T15:38:31.057Z,100426
2017-12-01T15:40:59.361Z,100435
2017-12-01T15:43:27.735Z,100448
2017-12-01T15:45:56.035Z,100450
2017-12-01T15:48:24.339Z,100463
2017-12-01T15:50:53.595Z,100463
2017-12-01T15:53:21.845Z,100465
2017-12-01T15:55:50.143Z,100462
2017-12-01T15:58:18.436Z,100460
2017-12-01T16:00:46.745Z,100451
2017-12-01T16:03:15.025Z,100478
2017-12-01T16:05:44.099Z,100470
2017-12-01T16:08:13.524Z,100469
2017-12-01T16:10:42.613Z,100465
2017-12-01T16:13:10.922Z,100474
2017-12-01T16:15:39.300Z,100468
2017-12-01T16:18:07.537Z,100485
2017-12-01T16:20:36.647Z,100483
2017-12-01T16:23:04.934Z,100482
2017-12-01T16:25:33.190Z,100479
2017-12-01T16:28:02.425Z,100491
2017-12-01T16:30:30.940Z,100486
2017-12-01T16:33:08.248Z,100496
2017-12-01T16:35:28.304Z,100494
2017-12-01T16:37:56.551Z,100504
2017-12-01T16:40:24.804Z,100510
2017-12-01T16:42:53.666Z,100514
2017-12-01T16:45:22.833Z,100522
2017-12-01T16:47:51.146Z,100523
2017-12-01T16:50:20.216Z,100518
2017-12-01T16:52:48.470Z,100523
2017-12-01T16:55:16.751Z,100533
2017-12-01T16:57:45.037Z,100544
2017-12-01T17:00:13.742Z,100546
2017-12-01T17:02:42.759Z,100543
2017-12-01T17:05:11.062Z,100553
2017-12-01T17:07:39.405Z,100552
2017-12-01T17:10:08.414Z,100563
2017-12-01T17:12:36.773Z,100567
2017-12-01T17:15:05.930Z,100573
2017-12-01T17:17:34.622Z,100575
2017-12-01T17:20:03.320Z,100589
2017-12-01T17:22:32.033Z,100578
2017-12-01T17:25:00.633Z,100586
2017-12-01T17:27:30.226Z,100586
2017-12-01T17:29:59.416Z,100586
2017-12-01T17:32:27.763Z,100587
2017-12-01T17:34:56.365Z,100590
2017-12-01T17:37:24.640Z,100601
2017-12-01T17:39:53.095Z,100595
2017-12-01T17:42:21.589Z,100588
2017-12-01T17:44:49.929Z,100586
2017-12-01T17:47:18.617Z,100598
2017-12-01T17:49:50.264Z,100612
2017-12-01T17:52:19.538Z,100613
2017-12-01T17:54:48.210Z,100620
2017-12-01T17:57:17.281Z,100631
2017-12-01T17:59:45.598Z,100631
2017-12-01T18:02:14.554Z,100624
2017-12-01T18:04:43.042Z,100643
2017-12-01T18:07:11.466Z,100635
2017-12-01T18:09:41.180Z,100644
2017-12-01T18:12:09.742Z,100643
2017-12-01T18:14:41.454Z,100650
2017-12-01T18:17:15.491Z,100658
2017-12-01T18:19:44.140Z,100655
2017-12-01T18:22:12.463Z,100658
2017-12-01T18:24:41.670Z,100652
2017-12-01T18:27:09.973Z,100653
2017-12-01T18:29:38.237Z,100655
2017-12-01T18:32:06.585Z,100664
2017-12-01T18:34:34.880Z,100656
2017-12-01T18:37:03.303Z,100655
2017-12-01T18:39:32.523Z,100654
2017-12-01T18:55:11.477Z,100693
2017-12-01T18:57:40.497Z,100695
2017-12-01T19:00:08.778Z,100699
2017-12-01T19:02:37.142Z,100690
2017-12-01T19:05:05.480Z,100695
2017-12-01T19:07:33.890Z,100686
2017-12-01T19:10:02.435Z,100687
2017-12-01T19:12:31.500Z,100697
2017-12-01T19:14:59.901Z,100689
2017-12-01T19:17:28.962Z,100699
2017-12-01T19:19:58.179Z,100695
2017-12-01T19:22:26.459Z,100704
2017-12-01T19:24:55.142Z,100715
2017-12-01T19:27:23.389Z,100708
2017-12-01T19:29:51.670Z,100705
2017-12-01T19:32:20.125Z,100706
2017-12-01T19:34:48.589Z,100719
2017-12-01T19:37:16.863Z,100717
2017-12-01T19:39:45.224Z,100727
2017-12-01T19:42:14.278Z,100728
2017-12-01T19:44:42.539Z,100733
2017-12-01T19:47:10.869Z,100736
2017-12-01T19:49:40.006Z,100741
2017-12-01T19:52:08.486Z,100743
2017-12-01T19:54:36.891Z,100730
2017-12-01T19:57:05.366Z,100740
2017-12-01T19:59:33.743Z,100748
2017-12-01T20:02:02.124Z,100745
2017-12-01T20:04:32.614Z,100747
2017-12-01T20:07:01.896Z,100745
2017-12-01T20:09:30.178Z,100753
2017-12-01T20:11:58.460Z,100740
2017-12-01T20:14:28.321Z,100752
2017-12-01T20:16:56.696Z,100761
2017-12-01T20:19:24.985Z,100767
2017-12-01T20:21:53.234Z,100768
2017-12-01T20:24:22.018Z,100771
2017-12-01T20:26:50.341Z,100777
2017-12-01T20:29:19.493Z,100776
2017-12-01T20:31:48.107Z,100782
2017-12-01T20:34:16.416Z,100770
2017-12-01T20:36:44.732Z,100786
2017-12-01T20:39:12.982Z,100781
2017-12-01T20:41:41.337Z,100783
2017-12-01T20:44:10.395Z,100790
2017-12-01T20:46:38.627Z,100782
2017-12-01T20:49:06.867Z,100777
2017-12-01T20:51:35.316Z,100790
2017-12-01T20:54:04.268Z,100791
2017-12-01T20:56:32.556Z,100794
2017-12-01T20:59:00.926Z,100796
2017-12-01T21:01:29.254Z,100794
2017-12-01T21:03:58.696Z,100785
2017-12-01T21:06:27.292Z,100792
2017-12-01T21:08:55.583Z,100791
2017-12-01T21:11:24.614Z,100797
2017-12-01T21:13:52.964Z,100804
2017-12-01T21:16:21.216Z,100801
2017-12-01T21:18:49.482Z,100808
2017-12-01T21:21:17.765Z,100814
2017-12-01T21:23:46.037Z,100804
2017-12-01T21:26:14.266Z,100823
2017-12-01T21:28:42.590Z,100811
2017-12-01T21:31:10.848Z,100819
2017-12-01T21:33:39.868Z,100826
2017-12-01T21:36:08.200Z,100825
2017-12-01T21:38:36.499Z,100824
2017-12-01T21:41:05.007Z,100830
2017-12-01T21:43:33.307Z,100832
2017-12-01T21:46:01.561Z,100823
2017-12-01T21:48:29.867Z,100830
2017-12-01T21:50:58.461Z,100836
2017-12-01T21:53:26.745Z,100825
2017-12-01T21:55:55.029Z,100830
2017-12-01T21:58:24.117Z,100831
2017-12-01T22:00:52.370Z,100832
2017-12-01T22:03:20.588Z,100832
2017-12-01T22:05:49.628Z,100836
2017-12-01T22:08:18.196Z,100844
2017-12-01T22:10:46.447Z,100843
2017-12-01T22:13:14.738Z,100844
2017-12-01T22:15:43.000Z,100855
2017-12-01T22:18:11.297Z,100849
2017-12-01T22:20:39.594Z,100845
2017-12-01T22:23:07.874Z,100844
2017-12-01T22:25:36.116Z,100849
2017-12-01T22:28:04.433Z,100862
2017-12-01T22:30:32.674Z,100866
2017-12-01T22:33:00.916Z,100866
2017-12-01T22:35:30.103Z,100862
2017-12-01T22:37:59.274Z,100870
2017-12-01T22:40:27.556Z,100864
2017-12-01T22:42:55.832Z,100872
2017-12-01T22:45:24.059Z,100871
2017-12-01T22:47:52.295Z,100876
2017-12-01T22:50:20.599Z,100871
2017-12-01T22:52:48.862Z,100884
2017-12-01T22:55:17.109Z,100885
2017-12-01T22:57:45.378Z,100893
2017-12-01T23:00:13.613Z,100887
2017-12-01T23:02:43.058Z,100893
2017-12-01T23:05:11.340Z,100892
2017-12-01T23:07:39.683Z,100894
2017-12-01T23:10:07.938Z,100897
2017-12-01T23:12:36.227Z,100906
2017-12-01T23:15:04.467Z,100900
2017-12-01T23:17:33.459Z,100904
2017-12-01T23:20:01.779Z,100904
2017-12-01T23:22:30.014Z,100911
2017-12-01T23:24:59.003Z,100916
2017-12-01T23:27:28.085Z,100922
2017-12-01T23:29:59.376Z,100915
2017-12-01T23:32:28.521Z,100910
2017-12-01T23:34:56.787Z,100922
2017-12-01T23:37:25.038Z,100913
2017-12-01T23:39:53.317Z,100908
2017-12-01T23:42:21.567Z,100911
2017-12-01T23:44:49.834Z,100900
2017-12-01T23:47:18.132Z,100909
2017-12-01T23:49:46.367Z,100913
2017-12-01T23:52:15.445Z,100916
2017-12-01T23:54:43.728Z,100923
2017-12-01T23:57:12.014Z,100925
2017-12-01T23:59:40.276Z,100930
